Owendale, Michigan
Current Conditions -  °F | °C
As of 10:55 PM on Wednesday 17 Dec 2014 (Local Time) from KBAX Reporting Station
Overcast Overcast  
Wind Chill: 19°   Ceiling: 2400
Heat Index: 28°   Visibility: 10mi
Dew Point: 26°   Wind: 10mph
Humidity: 93%   Direction: 280°W
Pressure: 30.07"   Gusts: 16mph
Location:  43.73°N, 83.27°W
Report Text: KBAX 180355Z AUTO 28009G14KT 10SM SCT018 BKN024 OVC029 M02/M03 A3007 RMK AO2 T10221032
Loading
Personal Weather Stations






























Interactive Weather Map New forecast layout! Learn more

10-Day Weather Forecast

Advertisements
Track Severe Weather on mobile